Time;durP1;ratioP1;P1;durP2;ratioP2;P2;SDS_P1;SDS_P2;PMS_P1;PMS_P2;Temp;Humidity;BMP_temperature;BMP_pressure;BME280_temperature;BME280_humidity;BME280_pressure;Samples;Min_cycle;Max_cycle;Signal;HPM_P1;HPM_P2
2023/06/07 00:01:58;;;;;;;6.47;5.90;;;;;;;;;;5012840;28;20037;-78
2023/06/07 00:04:23;;;;;;;7.93;6.53;;;;;;;;;;5018632;28;20037;-77
2023/06/07 00:06:48;;;;;;;9.32;6.30;;;;;;;;;;5006396;28;20088;-75
2023/06/07 00:09:14;;;;;;;5.07;4.57;;;;;;;;;;5024965;28;20036;-79
2023/06/07 00:11:40;;;;;;;7.18;6.28;;;;;;;;;;5026784;28;20033;-79
2023/06/07 00:14:05;;;;;;;6.90;6.28;;;;;;;;;;5019237;28;20040;-75
2023/06/07 00:16:32;;;;;;;6.97;6.28;;;;;;;;;;5025786;28;20058;-80
2023/06/07 00:18:58;;;;;;;7.60;6.40;;;;;;;;;;5023193;28;20041;-76
2023/06/07 00:21:24;;;;;;;7.82;7.00;;;;;;;;;;5026032;28;20041;-75
2023/06/07 00:23:50;;;;;;;8.68;7.78;;;;;;;;;;5025005;28;20042;-77
2023/06/07 00:26:16;;;;;;;9.20;8.20;;;;;;;;;;5022753;28;20045;-79
2023/06/07 00:28:41;;;;;;;9.57;7.45;;;;;;;;;;5017700;28;20068;-77
2023/06/07 00:31:07;;;;;;;7.38;6.38;;;;;;;;;;5007649;28;20113;-78
2023/06/07 00:33:33;;;;;;;8.35;6.45;;;;;;;;;;5023100;28;20034;-78
2023/06/07 00:35:58;;;;;;;4.55;4.15;;;;;;;;;;5023999;28;20053;-78
2023/06/07 00:38:24;;;;;;;9.38;7.13;;;;;;;;;;5020481;28;20033;-77
2023/06/07 00:40:50;;;;;;;8.63;7.07;;;;;;;;;;5023550;28;20045;-77
2023/06/07 00:43:15;;;;;;;6.75;5.47;;;;;;;;;;5021095;28;20046;-77
2023/06/07 00:45:41;;;;;;;8.48;7.28;;;;;;;;;;5013424;28;20156;-78
2023/06/07 00:48:07;;;;;;;4.20;3.80;;;;;;;;;;5027868;28;20107;-77
2023/06/07 00:50:33;;;;;;;8.75;7.50;;;;;;;;;;5040408;28;20527;-75
2023/06/07 00:53:00;;;;;;;5.20;4.70;;;;;;;;;;5037293;28;20567;-75
2023/06/07 00:55:26;;;;;;;7.85;7.13;;;;;;;;;;4999731;28;20482;-76
2023/06/07 00:57:52;;;;;;;9.73;7.72;;;;;;;;;;5026493;28;20080;-77
2023/06/07 01:00:18;;;;;;;9.88;8.02;;;;;;;;;;5009272;28;20403;-75
2023/06/07 01:02:46;;;;;;;5.20;4.70;;;;;;;;;;5005710;28;20038;-77
2023/06/07 01:05:12;;;;;;;6.70;5.30;;;;;;;;;;5018928;28;20038;-77
2023/06/07 01:07:38;;;;;;;7.30;5.18;;;;;;;;;;5021460;28;20040;-74
2023/06/07 01:10:05;;;;;;;5.22;4.65;;;;;;;;;;5023850;28;20041;-77
2023/06/07 01:12:34;;;;;;;7.88;6.80;;;;;;;;;;5007150;28;20037;-77
2023/06/07 01:15:00;;;;;;;7.90;7.05;;;;;;;;;;5020768;28;20041;-76
2023/06/07 01:17:28;;;;;;;7.72;6.75;;;;;;;;;;5018719;28;20068;-77
2023/06/07 01:19:57;;;;;;;5.00;4.10;;;;;;;;;;5020828;28;20037;-76
2023/06/07 01:22:27;;;;;;;6.72;6.13;;;;;;;;;;5017401;28;20034;-76
2023/06/07 01:24:53;;;;;;;9.27;7.60;;;;;;;;;;5022267;28;20029;-77
2023/06/07 01:27:21;;;;;;;7.20;6.50;;;;;;;;;;5011644;28;20038;-77
2023/06/07 01:29:48;;;;;;;7.55;6.57;;;;;;;;;;5020298;28;20045;-77
2023/06/07 01:32:15;;;;;;;7.65;6.68;;;;;;;;;;5017531;28;20037;-75
2023/06/07 01:34:41;;;;;;;8.88;7.10;;;;;;;;;;5018081;28;20116;-76
2023/06/07 01:37:07;;;;;;;7.95;7.15;;;;;;;;;;5027414;28;20096;-77
2023/06/07 01:39:33;;;;;;;7.32;6.47;;;;;;;;;;5008932;28;20038;-75
2023/06/07 01:42:00;;;;;;;7.43;6.68;;;;;;;;;;5025076;28;20067;-78
2023/06/07 01:44:26;;;;;;;6.72;6.03;;;;;;;;;;5016602;28;20029;-76
2023/06/07 01:46:51;;;;;;;8.43;6.72;;;;;;;;;;5019489;28;20398;-78
2023/06/07 01:49:20;;;;;;;6.63;6.03;;;;;;;;;;5023284;28;20096;-77
2023/06/07 01:51:46;;;;;;;8.00;7.18;;;;;;;;;;5017694;28;20037;-74
2023/06/07 01:54:13;;;;;;;5.10;4.60;;;;;;;;;;5006142;28;20457;-76
2023/06/07 01:57:03;;;;;;;7.57;6.88;;;;;;;;;;5017320;28;20658;-76
2023/06/07 01:59:42;;;;;;;8.48;7.68;;;;;;;;;;4973954;28;20129;-75
2023/06/07 02:02:32;;;;;;;7.85;7.03;;;;;;;;;;4997483;28;20041;-77
2023/06/07 02:05:06;;;;;;;9.40;7.78;;;;;;;;;;4993655;28;20491;-76
2023/06/07 02:07:41;;;;;;;10.48;9.18;;;;;;;;;;5030100;28;20038;-76
2023/06/07 02:10:08;;;;;;;11.27;10.10;;;;;;;;;;5016104;28;20627;-76
2023/06/07 02:12:34;;;;;;;6.57;5.75;;;;;;;;;;5025706;28;20147;-75
2023/06/07 02:15:00;;;;;;;10.73;9.63;;;;;;;;;;5028491;28;20033;-77
2023/06/07 02:17:25;;;;;;;10.73;9.10;;;;;;;;;;5036586;28;20092;-76
2023/06/07 02:19:51;;;;;;;8.15;7.13;;;;;;;;;;5019378;28;20029;-77
2023/06/07 02:22:16;;;;;;;10.18;9.18;;;;;;;;;;5017454;28;20095;-74
2023/06/07 02:24:42;;;;;;;8.95;8.05;;;;;;;;;;5016691;28;20068;-75
2023/06/07 02:27:08;;;;;;;11.00;8.48;;;;;;;;;;5014952;28;20029;-75
2023/06/07 02:29:35;;;;;;;10.60;9.50;;;;;;;;;;5026439;28;20386;-76
2023/06/07 02:32:00;;;;;;;9.23;8.32;;;;;;;;;;5038484;28;20512;-77
2023/06/07 02:34:26;;;;;;;10.43;8.80;;;;;;;;;;5029416;28;20095;-76
2023/06/07 02:36:52;;;;;;;7.35;6.22;;;;;;;;;;5018181;28;20110;-76
2023/06/07 02:39:18;;;;;;;8.00;7.20;;;;;;;;;;5016702;28;20080;-76
2023/06/07 02:41:43;;;;;;;4.95;4.55;;;;;;;;;;5019943;28;20037;-75
2023/06/07 02:44:09;;;;;;;10.02;9.02;;;;;;;;;;5009267;28;20084;-77
2023/06/07 02:46:34;;;;;;;7.43;6.72;;;;;;;;;;5021123;28;20037;-75
2023/06/07 02:49:00;;;;;;;9.60;8.40;;;;;;;;;;5022254;28;20523;-77
2023/06/07 02:51:25;;;;;;;10.18;8.95;;;;;;;;;;5018448;28;20061;-77
2023/06/07 02:53:53;;;;;;;10.65;9.55;;;;;;;;;;5024429;28;20033;-75
2023/06/07 02:56:18;;;;;;;12.43;11.13;;;;;;;;;;5021852;28;20044;-77
2023/06/07 02:58:43;;;;;;;10.82;9.27;;;;;;;;;;5011915;28;20037;-77
2023/06/07 03:01:09;;;;;;;11.52;10.02;;;;;;;;;;5018653;28;20588;-76
2023/06/07 03:03:35;;;;;;;12.98;11.55;;;;;;;;;;5019925;28;20033;-77
2023/06/07 03:06:04;;;;;;;11.65;10.43;;;;;;;;;;5018255;28;20044;-76
2023/06/07 03:08:31;;;;;;;8.95;8.05;;;;;;;;;;5000696;28;20037;-74
2023/06/07 03:10:57;;;;;;;12.23;10.93;;;;;;;;;;5005594;28;20687;-77
2023/06/07 03:13:23;;;;;;;4.10;3.70;;;;;;;;;;5019222;28;20521;-76
2023/06/07 03:15:48;;;;;;;12.20;10.80;;;;;;;;;;5019918;28;20123;-77
2023/06/07 03:18:17;;;;;;;10.93;9.73;;;;;;;;;;5019708;28;20541;-77
2023/06/07 03:20:43;;;;;;;11.10;9.93;;;;;;;;;;5017127;28;20025;-76
2023/06/07 03:23:09;;;;;;;10.32;9.20;;;;;;;;;;5013783;28;20482;-75
2023/06/07 03:25:35;;;;;;;10.35;8.70;;;;;;;;;;5008521;28;20049;-78
2023/06/07 03:28:00;;;;;;;10.68;9.48;;;;;;;;;;5022836;28;20045;-76
2023/06/07 03:30:26;;;;;;;11.15;9.55;;;;;;;;;;5018307;28;20039;-74
2023/06/07 03:32:52;;;;;;;10.35;8.73;;;;;;;;;;5017229;28;20041;-77
2023/06/07 03:35:18;;;;;;;9.73;8.73;;;;;;;;;;5017308;28;20040;-77
2023/06/07 03:37:43;;;;;;;12.52;9.80;;;;;;;;;;5020460;28;20061;-76
2023/06/07 03:40:09;;;;;;;10.18;8.20;;;;;;;;;;5007657;28;20049;-76
2023/06/07 03:42:35;;;;;;;9.93;8.50;;;;;;;;;;5019296;28;20037;-76
2023/06/07 03:45:00;;;;;;;9.73;8.40;;;;;;;;;;5014808;28;20040;-77
2023/06/07 03:47:26;;;;;;;8.77;7.88;;;;;;;;;;5020895;28;20473;-77
2023/06/07 03:49:51;;;;;;;8.90;7.82;;;;;;;;;;5000707;28;20049;-75
2023/06/07 03:52:16;;;;;;;8.82;7.93;;;;;;;;;;5033113;28;20029;-77
2023/06/07 03:54:42;;;;;;;10.60;9.43;;;;;;;;;;5028149;28;20137;-77
2023/06/07 03:57:07;;;;;;;9.27;7.82;;;;;;;;;;5036522;28;20059;-77
2023/06/07 03:59:32;;;;;;;9.52;8.40;;;;;;;;;;5042686;28;20040;-74
2023/06/07 04:02:00;;;;;;;6.93;5.85;;;;;;;;;;5038068;28;20118;-77
2023/06/07 04:04:29;;;;;;;7.85;6.80;;;;;;;;;;5024177;28;20026;-77
2023/06/07 04:06:54;;;;;;;9.38;8.38;;;;;;;;;;5007729;28;20037;-77
2023/06/07 04:09:20;;;;;;;7.75;6.93;;;;;;;;;;5018272;28;20506;-78
2023/06/07 04:11:46;;;;;;;9.38;8.43;;;;;;;;;;5018969;28;20041;-76
2023/06/07 04:14:12;;;;;;;8.75;7.85;;;;;;;;;;5018915;28;20484;-77
2023/06/07 04:16:37;;;;;;;9.57;7.93;;;;;;;;;;5025987;28;20038;-76
2023/06/07 04:19:02;;;;;;;8.68;7.50;;;;;;;;;;5016506;28;20030;-77
2023/06/07 04:21:28;;;;;;;8.32;7.53;;;;;;;;;;4991627;28;20034;-77
2023/06/07 04:23:53;;;;;;;6.25;5.70;;;;;;;;;;5019229;28;20037;-78
2023/06/07 04:26:21;;;;;;;7.68;6.88;;;;;;;;;;5017356;28;20041;-76
2023/06/07 04:28:47;;;;;;;10.10;9.10;;;;;;;;;;5011033;28;20037;-75
2023/06/07 04:31:13;;;;;;;4.53;4.10;;;;;;;;;;5025696;28;20125;-76
2023/06/07 04:33:39;;;;;;;12.48;9.93;;;;;;;;;;5020617;28;20557;-75
2023/06/07 04:36:04;;;;;;;6.57;5.70;;;;;;;;;;5007511;28;20033;-77
2023/06/07 04:38:30;;;;;;;7.78;7.07;;;;;;;;;;5015818;28;20037;-76
2023/06/07 04:40:55;;;;;;;10.45;9.27;;;;;;;;;;5020245;28;20042;-73
2023/06/07 04:43:23;;;;;;;8.10;7.30;;;;;;;;;;5021881;28;20034;-77
2023/06/07 04:45:54;;;;;;;8.68;7.72;;;;;;;;;;5019242;28;20733;-75
2023/06/07 04:48:24;;;;;;;9.93;8.93;;;;;;;;;;5009791;28;20144;-75
2023/06/07 04:50:50;;;;;;;6.85;6.15;;;;;;;;;;5016320;28;20045;-75
2023/06/07 04:53:17;;;;;;;12.35;10.57;;;;;;;;;;5008334;28;20729;-75
2023/06/07 04:55:44;;;;;;;5.78;5.20;;;;;;;;;;5023360;28;20033;-73
2023/06/07 04:58:10;;;;;;;10.00;7.93;;;;;;;;;;5026661;28;20104;-73
2023/06/07 05:00:36;;;;;;;7.05;6.35;;;;;;;;;;5025893;28;20644;-76
2023/06/07 05:03:06;;;;;;;9.73;8.32;;;;;;;;;;5006801;28;20037;-73
2023/06/07 05:05:32;;;;;;;6.75;6.05;;;;;;;;;;5017825;28;20077;-74
2023/06/07 05:07:58;;;;;;;11.25;9.80;;;;;;;;;;5001784;28;20065;-75
2023/06/07 05:10:24;;;;;;;11.95;9.70;;;;;;;;;;5016899;28;20037;-75
2023/06/07 05:12:49;;;;;;;10.80;9.70;;;;;;;;;;5012834;28;20030;-78
2023/06/07 05:15:14;;;;;;;10.20;7.10;;;;;;;;;;5002483;28;20099;-76
2023/06/07 05:17:40;;;;;;;10.20;7.65;;;;;;;;;;5017441;28;20037;-77
2023/06/07 05:20:10;;;;;;;5.53;4.63;;;;;;;;;;5017363;28;20033;-77
2023/06/07 05:22:36;;;;;;;7.75;6.65;;;;;;;;;;5025005;28;20037;-73
2023/06/07 05:25:02;;;;;;;9.30;8.40;;;;;;;;;;5038003;28;20112;-75
2023/06/07 05:27:27;;;;;;;13.63;12.23;;;;;;;;;;5020866;28;20120;-74
2023/06/07 05:29:52;;;;;;;12.02;9.65;;;;;;;;;;5008278;28;20068;-75
2023/06/07 05:32:18;;;;;;;15.73;11.88;;;;;;;;;;5020655;28;20095;-75
2023/06/07 05:34:45;;;;;;;11.95;10.40;;;;;;;;;;5019611;28;20033;-76
2023/06/07 05:37:12;;;;;;;10.02;9.02;;;;;;;;;;5004074;28;20030;-72
2023/06/07 05:39:37;;;;;;;14.32;12.45;;;;;;;;;;5017893;28;20064;-76
2023/06/07 05:42:03;;;;;;;13.20;11.80;;;;;;;;;;5015988;28;20065;-76
2023/06/07 05:44:29;;;;;;;12.05;10.60;;;;;;;;;;5004485;28;20055;-74
2023/06/07 05:46:54;;;;;;;13.13;11.35;;;;;;;;;;5020503;28;20045;-75
2023/06/07 05:49:19;;;;;;;13.18;11.77;;;;;;;;;;5023045;28;20033;-74
2023/06/07 05:51:45;;;;;;;12.88;11.43;;;;;;;;;;5019632;28;20037;-74
2023/06/07 05:54:10;;;;;;;12.60;11.30;;;;;;;;;;5017237;28;20040;-75
2023/06/07 05:56:36;;;;;;;14.70;12.30;;;;;;;;;;5016321;28;20044;-75
2023/06/07 05:59:01;;;;;;;11.10;9.13;;;;;;;;;;5009508;28;20128;-75
2023/06/07 06:01:27;;;;;;;12.23;10.88;;;;;;;;;;5019939;28;20069;-76
2023/06/07 06:03:52;;;;;;;11.30;10.10;;;;;;;;;;5021215;28;20048;-75
2023/06/07 06:06:18;;;;;;;10.65;9.05;;;;;;;;;;5020255;28;20044;-76
2023/06/07 06:08:45;;;;;;;9.65;8.65;;;;;;;;;;5019145;28;20116;-74
2023/06/07 06:11:12;;;;;;;10.18;8.48;;;;;;;;;;5010721;28;20057;-76
2023/06/07 06:13:38;;;;;;;8.23;7.18;;;;;;;;;;5016748;28;20072;-74
2023/06/07 06:16:04;;;;;;;11.57;10.35;;;;;;;;;;5016436;28;20497;-73
2023/06/07 06:18:30;;;;;;;12.02;9.60;;;;;;;;;;5013933;28;20048;-73
2023/06/07 06:20:55;;;;;;;11.32;10.13;;;;;;;;;;5019637;28;20448;-76
2023/06/07 06:23:21;;;;;;;13.77;12.38;;;;;;;;;;5038677;28;20041;-75
2023/06/07 06:25:47;;;;;;;10.13;9.05;;;;;;;;;;5028114;28;20219;-75
2023/06/07 06:28:12;;;;;;;12.75;11.43;;;;;;;;;;5020508;28;20585;-74
2023/06/07 06:30:38;;;;;;;12.70;11.40;;;;;;;;;;5012391;28;20054;-74
2023/06/07 06:33:03;;;;;;;11.88;9.63;;;;;;;;;;5024281;28;20067;-73
2023/06/07 06:35:32;;;;;;;13.00;11.43;;;;;;;;;;5002873;28;20179;-75
2023/06/07 06:37:58;;;;;;;13.60;10.18;;;;;;;;;;5026216;28;20727;-74
2023/06/07 06:40:23;;;;;;;12.38;10.38;;;;;;;;;;5021777;28;20045;-74
2023/06/07 06:42:48;;;;;;;13.75;11.18;;;;;;;;;;5015448;28;20041;-74
2023/06/07 06:45:14;;;;;;;13.50;11.70;;;;;;;;;;5015833;28;20037;-75
2023/06/07 06:47:41;;;;;;;12.07;10.60;;;;;;;;;;5020273;28;20497;-75
2023/06/07 06:50:11;;;;;;;14.23;11.93;;;;;;;;;;5017108;28;20068;-76
2023/06/07 06:52:41;;;;;;;13.32;10.45;;;;;;;;;;5029913;28;20033;-76
2023/06/07 06:55:07;;;;;;;14.10;12.07;;;;;;;;;;5031352;28;20053;-75
2023/06/07 06:57:32;;;;;;;14.75;13.20;;;;;;;;;;5015744;28;20126;-74
2023/06/07 06:59:59;;;;;;;15.45;12.95;;;;;;;;;;5014301;28;20038;-74
2023/06/07 07:02:25;;;;;;;12.27;10.95;;;;;;;;;;5013781;28;20041;-74
2023/06/07 07:04:50;;;;;;;10.80;9.70;;;;;;;;;;5017227;28;20624;-76
2023/06/07 07:07:15;;;;;;;13.80;12.40;;;;;;;;;;5021049;28;20044;-74
2023/06/07 07:09:41;;;;;;;13.95;11.02;;;;;;;;;;5014834;28;20030;-74
2023/06/07 07:12:07;;;;;;;15.32;12.15;;;;;;;;;;5017275;28;20471;-73
2023/06/07 07:14:32;;;;;;;14.27;11.38;;;;;;;;;;5014608;28;20393;-73
2023/06/07 07:16:58;;;;;;;12.02;9.85;;;;;;;;;;5022362;28;20048;-73
2023/06/07 07:19:23;;;;;;;11.35;10.18;;;;;;;;;;5035557;28;20536;-74
2023/06/07 07:21:48;;;;;;;11.05;9.95;;;;;;;;;;5023555;28;20130;-75
2023/06/07 07:24:14;;;;;;;12.65;9.80;;;;;;;;;;5015099;28;20033;-75
2023/06/07 07:26:39;;;;;;;13.00;11.70;;;;;;;;;;5017691;28;20604;-75
2023/06/07 07:29:05;;;;;;;14.15;12.43;;;;;;;;;;5004123;28;20037;-75
2023/06/07 07:31:33;;;;;;;14.05;11.20;;;;;;;;;;5014353;28;20038;-76
2023/06/07 07:34:00;;;;;;;11.25;9.88;;;;;;;;;;5020621;28;20045;-75
2023/06/07 07:36:25;;;;;;;11.63;10.25;;;;;;;;;;5002239;28;20036;-74
2023/06/07 07:38:51;;;;;;;12.80;11.35;;;;;;;;;;5027531;28;20152;-73
2023/06/07 07:41:17;;;;;;;12.48;10.77;;;;;;;;;;5014333;28;20036;-73
2023/06/07 07:43:42;;;;;;;10.70;9.60;;;;;;;;;;5017588;28;20038;-74
2023/06/07 07:46:08;;;;;;;6.53;5.95;;;;;;;;;;5014376;28;20107;-76
2023/06/07 07:48:33;;;;;;;12.02;10.82;;;;;;;;;;5002372;28;20034;-73
2023/06/07 07:50:59;;;;;;;11.07;9.98;;;;;;;;;;5009630;28;20117;-74
2023/06/07 07:53:25;;;;;;;10.85;9.75;;;;;;;;;;5014412;28;20041;-75
2023/06/07 07:55:50;;;;;;;12.30;10.88;;;;;;;;;;5021532;28;20032;-73
2023/06/07 07:58:15;;;;;;;11.20;10.10;;;;;;;;;;5006610;28;20103;-74
2023/06/07 08:00:41;;;;;;;11.10;9.88;;;;;;;;;;5018181;28;20026;-74
2023/06/07 08:03:08;;;;;;;6.57;5.50;;;;;;;;;;5001676;28;20041;-74
2023/06/07 08:05:33;;;;;;;5.38;4.88;;;;;;;;;;5022669;28;20236;-74
2023/06/07 08:07:58;;;;;;;12.63;11.32;;;;;;;;;;5025553;28;20717;-73
2023/06/07 08:10:24;;;;;;;12.00;10.63;;;;;;;;;;5027975;28;20129;-73
2023/06/07 08:12:50;;;;;;;14.35;12.70;;;;;;;;;;5020789;28;20065;-74
2023/06/07 08:15:16;;;;;;;12.85;11.43;;;;;;;;;;5018225;28;20083;-74
2023/06/07 08:17:41;;;;;;;8.88;8.00;;;;;;;;;;5014318;28;20472;-73
2023/06/07 08:20:08;;;;;;;14.00;12.50;;;;;;;;;;5020627;28;20034;-74
2023/06/07 08:22:35;;;;;;;13.68;12.18;;;;;;;;;;5020642;28;20425;-73
2023/06/07 08:25:00;;;;;;;12.38;11.13;;;;;;;;;;5014165;28;20391;-73
2023/06/07 08:27:26;;;;;;;14.05;11.25;;;;;;;;;;5017843;28;20091;-74
2023/06/07 08:29:51;;;;;;;12.48;11.10;;;;;;;;;;5001450;28;20044;-74
2023/06/07 08:32:17;;;;;;;11.52;10.43;;;;;;;;;;5009117;28;20049;-73
2023/06/07 08:34:42;;;;;;;13.25;11.85;;;;;;;;;;5021277;28;20033;-73
2023/06/07 08:37:08;;;;;;;13.05;11.52;;;;;;;;;;5019955;28;20433;-73
2023/06/07 08:39:33;;;;;;;10.75;9.63;;;;;;;;;;5021095;28;20103;-73
2023/06/07 08:41:59;;;;;;;5.97;5.47;;;;;;;;;;5032007;28;20206;-73
2023/06/07 08:44:24;;;;;;;5.65;5.05;;;;;;;;;;5031334;28;20102;-74
2023/06/07 08:46:51;;;;;;;10.68;9.68;;;;;;;;;;5030030;28;20037;-72
2023/06/07 08:49:17;;;;;;;11.35;9.52;;;;;;;;;;5030904;28;20041;-73
2023/06/07 08:51:43;;;;;;;12.00;10.23;;;;;;;;;;5016527;28;20069;-72
2023/06/07 08:54:10;;;;;;;10.68;9.45;;;;;;;;;;5018871;28;20528;-72
2023/06/07 08:56:38;;;;;;;11.70;10.05;;;;;;;;;;5014823;28;20080;-72
2023/06/07 08:59:04;;;;;;;12.32;10.27;;;;;;;;;;5000381;28;20033;-74
2023/06/07 09:01:30;;;;;;;10.82;9.68;;;;;;;;;;5016945;28;20046;-72
2023/06/07 09:03:56;;;;;;;9.55;7.97;;;;;;;;;;5019102;28;20040;-73
2023/06/07 09:06:22;;;;;;;9.52;8.63;;;;;;;;;;5021876;28;20040;-73
2023/06/07 09:08:48;;;;;;;11.15;9.15;;;;;;;;;;5017468;28;20414;-73
2023/06/07 09:11:16;;;;;;;9.55;8.57;;;;;;;;;;5017822;28;20034;-74
2023/06/07 09:13:42;;;;;;;13.85;9.45;;;;;;;;;;5007340;28;20041;-74
2023/06/07 09:16:11;;;;;;;8.75;7.43;;;;;;;;;;5004156;28;20044;-74
2023/06/07 09:18:43;;;;;;;8.63;7.20;;;;;;;;;;5019474;28;20175;-73
2023/06/07 09:21:19;;;;;;;8.35;7.32;;;;;;;;;;5017041;28;20041;-73
2023/06/07 09:23:45;;;;;;;8.10;6.80;;;;;;;;;;5017440;28;20490;-73
2023/06/07 09:26:11;;;;;;;8.55;7.35;;;;;;;;;;5003254;28;20048;-75
2023/06/07 09:28:37;;;;;;;7.32;6.57;;;;;;;;;;5006965;28;20034;-74
2023/06/07 09:31:04;;;;;;;8.52;7.63;;;;;;;;;;5019646;28;20045;-74
2023/06/07 09:33:34;;;;;;;6.68;4.60;;;;;;;;;;5023225;28;20041;-73
2023/06/07 09:36:12;;;;;;;9.73;7.47;;;;;;;;;;5016322;28;20176;-73
2023/06/07 09:38:38;;;;;;;7.82;7.03;;;;;;;;;;5000951;28;20532;-76
2023/06/07 09:41:06;;;;;;;6.90;6.20;;;;;;;;;;5025971;28;22302;-75
2023/06/07 09:43:41;;;;;;;4.55;3.97;;;;;;;;;;5036205;28;20044;-74
2023/06/07 09:46:07;;;;;;;7.20;6.35;;;;;;;;;;5037742;28;20033;-76
2023/06/07 09:48:48;;;;;;;6.05;5.45;;;;;;;;;;5037209;28;20045;-74
2023/06/07 09:51:15;;;;;;;7.97;7.05;;;;;;;;;;5008124;28;20501;-76
2023/06/07 09:53:52;;;;;;;8.63;6.90;;;;;;;;;;5017536;28;20044;-76
2023/06/07 09:56:18;;;;;;;9.02;7.28;;;;;;;;;;5001318;28;20036;-76
2023/06/07 09:58:49;;;;;;;8.02;6.90;;;;;;;;;;5028317;28;20041;-76
2023/06/07 10:01:15;;;;;;;8.90;6.43;;;;;;;;;;5036192;28;20026;-75
2023/06/07 10:03:47;;;;;;;7.97;6.13;;;;;;;;;;5028966;28;20409;-75
2023/06/07 10:06:16;;;;;;;6.63;5.97;;;;;;;;;;5039555;28;20521;-76
2023/06/07 10:08:43;;;;;;;6.50;5.28;;;;;;;;;;5027593;28;20041;-73
2023/06/07 10:11:08;;;;;;;6.90;6.03;;;;;;;;;;5017382;28;20037;-73
2023/06/07 10:13:35;;;;;;;6.20;5.57;;;;;;;;;;5027101;28;20071;-76
2023/06/07 10:16:04;;;;;;;6.03;5.50;;;;;;;;;;5024821;28;20114;-76
2023/06/07 10:18:30;;;;;;;7.75;5.80;;;;;;;;;;5020794;28;20044;-76
2023/06/07 10:21:02;;;;;;;6.25;5.38;;;;;;;;;;5021723;28;20191;-76
2023/06/07 10:23:34;;;;;;;7.05;6.03;;;;;;;;;;5012852;28;20068;-75
2023/06/07 10:26:04;;;;;;;8.23;6.22;;;;;;;;;;5024404;28;20045;-75
2023/06/07 10:28:56;;;;;;;5.32;4.82;;;;;;;;;;5008608;28;20036;-76
2023/06/07 10:31:27;;;;;;;7.65;5.93;;;;;;;;;;5016564;28;20128;-76
2023/06/07 10:33:55;;;;;;;6.15;4.75;;;;;;;;;;5026279;28;20033;-74
2023/06/07 10:36:23;;;;;;;7.30;5.78;;;;;;;;;;5018063;28;20560;-76
2023/06/07 10:38:50;;;;;;;8.18;6.18;;;;;;;;;;5005717;28;20866;-76
2023/06/07 10:41:16;;;;;;;7.00;5.55;;;;;;;;;;5016966;28;20060;-77
2023/06/07 10:43:46;;;;;;;6.70;5.35;;;;;;;;;;5016838;28;20120;-77
2023/06/07 10:46:25;;;;;;;6.47;5.72;;;;;;;;;;5004361;28;20043;-77
2023/06/07 10:48:56;;;;;;;5.95;5.10;;;;;;;;;;5019863;28;20048;-77
2023/06/07 10:52:02;;;;;;;8.95;5.35;;;;;;;;;;5007737;28;20038;-76
2023/06/07 10:54:30;;;;;;;5.70;5.20;;;;;;;;;;5020254;28;20488;-74
2023/06/07 10:56:55;;;;;;;9.20;5.93;;;;;;;;;;5021101;28;20045;-76
2023/06/07 10:59:22;;;;;;;9.13;5.68;;;;;;;;;;5021283;28;20044;-77
2023/06/07 11:01:50;;;;;;;6.68;5.20;;;;;;;;;;5006808;28;20037;-77
2023/06/07 11:04:31;;;;;;;5.40;4.80;;;;;;;;;;5015323;28;20541;-77
2023/06/07 11:07:30;;;;;;;6.53;5.28;;;;;;;;;;5016769;28;20755;-76
2023/06/07 11:10:04;;;;;;;6.55;5.20;;;;;;;;;;5023246;28;20033;-75
2023/06/07 11:12:57;;;;;;;6.07;5.47;;;;;;;;;;4992585;28;20589;-75
2023/06/07 11:15:42;;;;;;;6.53;5.30;;;;;;;;;;5023080;28;20039;-75
2023/06/07 11:18:08;;;;;;;6.55;4.93;;;;;;;;;;5032700;28;20545;-76
2023/06/07 11:20:40;;;;;;;9.23;5.38;;;;;;;;;;5028750;28;20405;-74
2023/06/07 11:23:27;;;;;;;7.40;4.82;;;;;;;;;;5013564;28;20052;-77
2023/06/07 11:26:10;;;;;;;5.93;4.82;;;;;;;;;;5013507;28;20056;-74
2023/06/07 11:28:37;;;;;;;5.78;5.07;;;;;;;;;;5015546;28;20057;-76
2023/06/07 11:31:08;;;;;;;6.90;4.97;;;;;;;;;;5007980;28;20033;-74
2023/06/07 11:33:34;;;;;;;6.45;4.95;;;;;;;;;;5018974;28;20037;-75
2023/06/07 11:36:01;;;;;;;5.40;4.90;;;;;;;;;;5023346;28;20094;-75
2023/06/07 11:38:27;;;;;;;5.72;5.15;;;;;;;;;;5025431;28;20049;-76
2023/06/07 11:40:53;;;;;;;5.43;4.85;;;;;;;;;;5016956;28;20104;-76
2023/06/07 11:43:23;;;;;;;6.38;4.78;;;;;;;;;;5009325;28;20115;-76
2023/06/07 11:45:49;;;;;;;5.40;4.90;;;;;;;;;;5035614;28;20048;-76
2023/06/07 11:48:15;;;;;;;6.22;5.18;;;;;;;;;;5038243;28;20032;-74
2023/06/07 11:50:43;;;;;;;5.97;4.57;;;;;;;;;;5034409;28;20033;-73
2023/06/07 11:53:09;;;;;;;5.88;5.10;;;;;;;;;;5037271;28;20032;-76
2023/06/07 11:55:35;;;;;;;7.25;4.90;;;;;;;;;;5037305;28;20473;-74
2023/06/07 11:58:02;;;;;;;5.43;4.68;;;;;;;;;;5007511;28;20109;-76
2023/06/07 12:00:30;;;;;;;6.07;4.80;;;;;;;;;;5014036;28;20561;-75
2023/06/07 12:02:57;;;;;;;4.57;4.18;;;;;;;;;;5019894;28;20128;-76
2023/06/07 12:05:30;;;;;;;3.95;3.50;;;;;;;;;;5024793;28;20037;-77
2023/06/07 12:07:59;;;;;;;4.90;4.40;;;;;;;;;;5017929;28;20047;-76
2023/06/07 12:10:27;;;;;;;6.13;4.63;;;;;;;;;;5015201;28;20496;-75
2023/06/07 12:13:14;;;;;;;6.15;4.40;;;;;;;;;;5033579;28;20116;-74
2023/06/07 12:15:45;;;;;;;5.03;4.53;;;;;;;;;;5036722;28;20132;-76
2023/06/07 12:18:12;;;;;;;;;;;;;;;;;;5038652;28;20037;-74
2023/06/07 12:20:38;;;;;;;3.00;2.70;;;;;;;;;;5008104;28;19913;-74
2023/06/07 12:23:04;;;;;;;4.25;3.83;;;;;;;;;;5033123;28;20091;-77
2023/06/07 12:25:30;;;;;;;5.00;4.50;;;;;;;;;;5013294;28;20052;-76
2023/06/07 12:27:55;;;;;;;4.85;4.45;;;;;;;;;;5018899;28;20041;-75
2023/06/07 12:30:21;;;;;;;5.20;4.68;;;;;;;;;;5019195;28;20645;-77
2023/06/07 12:32:47;;;;;;;5.30;4.80;;;;;;;;;;5016363;28;20045;-76
2023/06/07 12:35:13;;;;;;;3.42;3.13;;;;;;;;;;5012476;28;20144;-76
2023/06/07 12:37:39;;;;;;;5.05;4.30;;;;;;;;;;5023412;28;20041;-77
2023/06/07 12:40:07;;;;;;;4.85;4.38;;;;;;;;;;5020965;28;20480;-74
2023/06/07 12:42:32;;;;;;;4.72;3.97;;;;;;;;;;5017915;28;20132;-76
2023/06/07 12:44:58;;;;;;;5.68;4.35;;;;;;;;;;5018252;28;20567;-76
2023/06/07 12:47:24;;;;;;;4.85;4.30;;;;;;;;;;5022261;28;20099;-76
2023/06/07 12:49:49;;;;;;;4.10;3.67;;;;;;;;;;5030178;28;20045;-75
2023/06/07 12:52:15;;;;;;;4.50;4.10;;;;;;;;;;5033321;28;20038;-77
2023/06/07 12:54:41;;;;;;;8.77;4.85;;;;;;;;;;5020860;28;20819;-77
2023/06/07 12:57:06;;;;;;;5.32;4.22;;;;;;;;;;5018132;28;20510;-77
2023/06/07 12:59:32;;;;;;;4.35;3.72;;;;;;;;;;5018169;28;20115;-76
2023/06/07 13:01:57;;;;;;;5.25;4.70;;;;;;;;;;5017962;28;20064;-77
2023/06/07 13:04:23;;;;;;;4.35;3.60;;;;;;;;;;5007347;28;20513;-76
2023/06/07 13:06:49;;;;;;;2.95;2.72;;;;;;;;;;5015468;28;20979;-75
2023/06/07 13:09:14;;;;;;;5.28;4.70;;;;;;;;;;5020808;28;20116;-77
2023/06/07 13:11:41;;;;;;;3.60;3.20;;;;;;;;;;5020981;28;20052;-77
2023/06/07 13:14:07;;;;;;;4.93;4.50;;;;;;;;;;5022061;28;20065;-77
2023/06/07 13:16:33;;;;;;;5.43;4.82;;;;;;;;;;5021046;28;20042;-77
2023/06/07 13:19:00;;;;;;;6.13;4.70;;;;;;;;;;5020788;28;20091;-77
2023/06/07 13:21:26;;;;;;;4.75;4.25;;;;;;;;;;5016353;28;20261;-75
2023/06/07 13:23:52;;;;;;;6.60;4.45;;;;;;;;;;5019202;28;20112;-76
2023/06/07 13:26:17;;;;;;;4.88;4.18;;;;;;;;;;5018524;28;20109;-77
2023/06/07 13:28:45;;;;;;;6.55;4.55;;;;;;;;;;5024556;28;20052;-76
2023/06/07 13:31:11;;;;;;;5.03;4.22;;;;;;;;;;5008357;28;20038;-77
2023/06/07 13:33:37;;;;;;;6.22;4.85;;;;;;;;;;5020055;28;20089;-76
2023/06/07 13:36:02;;;;;;;8.43;4.80;;;;;;;;;;5022231;28;20033;-77
2023/06/07 13:38:28;;;;;;;6.55;4.55;;;;;;;;;;5029727;28;20029;-75
2023/06/07 13:40:53;;;;;;;6.53;4.22;;;;;;;;;;5038739;28;20124;-76
2023/06/07 13:43:19;;;;;;;4.40;4.00;;;;;;;;;;5044690;28;20087;-77
2023/06/07 13:45:45;;;;;;;22.70;5.75;;;;;;;;;;5032144;28;20128;-75
2023/06/07 13:48:11;;;;;;;5.80;5.30;;;;;;;;;;5004681;28;20037;-75
2023/06/07 13:50:37;;;;;;;5.18;4.53;;;;;;;;;;5012653;28;20029;-74
2023/06/07 13:53:02;;;;;;;5.13;4.63;;;;;;;;;;5031241;28;20037;-76
2023/06/07 13:55:27;;;;;;;6.63;5.10;;;;;;;;;;5019545;28;20037;-77
2023/06/07 13:57:54;;;;;;;5.40;4.90;;;;;;;;;;5019121;28;20139;-76
2023/06/07 14:00:21;;;;;;;4.72;4.10;;;;;;;;;;5007377;28;20044;-78
2023/06/07 14:02:47;;;;;;;5.40;4.90;;;;;;;;;;5018605;28;20049;-77
2023/06/07 14:05:13;;;;;;;6.25;4.45;;;;;;;;;;5025758;28;20037;-76
2023/06/07 14:07:40;;;;;;;6.95;5.40;;;;;;;;;;5022236;28;20039;-76
2023/06/07 14:10:06;;;;;;;8.45;5.20;;;;;;;;;;5021489;28;20030;-74
2023/06/07 14:12:32;;;;;;;5.18;4.75;;;;;;;;;;5038053;28;20342;-77
2023/06/07 14:14:57;;;;;;;5.20;4.53;;;;;;;;;;5049250;28;20782;-76
2023/06/07 14:17:23;;;;;;;37.33;8.07;;;;;;;;;;5032383;28;20049;-75
2023/06/07 14:19:48;;;;;;;4.25;3.85;;;;;;;;;;5028410;28;20056;-77
2023/06/07 14:22:14;;;;;;;5.53;5.00;;;;;;;;;;5023329;28;20048;-76
2023/06/07 14:24:39;;;;;;;6.13;4.75;;;;;;;;;;5007025;28;20053;-76
2023/06/07 14:27:06;;;;;;;6.38;4.90;;;;;;;;;;5009592;28;20030;-76
2023/06/07 14:29:32;;;;;;;5.05;4.65;;;;;;;;;;5019780;28;20041;-76
2023/06/07 14:31:58;;;;;;;5.75;4.90;;;;;;;;;;5023239;28;20115;-74
2023/06/07 14:34:23;;;;;;;6.03;4.88;;;;;;;;;;5008173;28;20033;-76
2023/06/07 14:36:50;;;;;;;6.40;4.97;;;;;;;;;;5023689;28;20041;-74